Time;durP1;ratioP1;P1;durP2;ratioP2;P2;SDS_P1;SDS_P2;PMS_P1;PMS_P2;Temp;Humidity;BMP_temperature;BMP_pressure;BME280_temperature;BME280_humidity;BME280_pressure;Samples;Min_cycle;Max_cycle;Signal;HPM_P1;HPM_P2
2022/09/09 00:04:38;;;;;;;14.52;9.85;;;;;;;;;;10408066;28;20025;-85
2022/09/09 00:09:50;;;;;;;16.65;10.77;;;;;;;;;;10407598;28;20037;-81
2022/09/09 00:14:53;;;;;;;19.17;11.20;;;;;;;;;;10407900;28;20025;-83
2022/09/09 00:19:54;;;;;;;18.27;11.80;;;;;;;;;;10408369;28;20022;-82
2022/09/09 00:24:57;;;;;;;24.05;10.73;;;;;;;;;;10407499;28;20043;-84
2022/09/09 00:30:01;;;;;;;15.77;9.85;;;;;;;;;;10410110;28;20076;-81
2022/09/09 00:35:03;;;;;;;16.05;9.20;;;;;;;;;;10405075;28;20036;-82
2022/09/09 00:40:18;;;;;;;16.73;8.95;;;;;;;;;;10406111;28;20025;-81
2022/09/09 00:45:39;;;;;;;15.35;10.00;;;;;;;;;;10405171;28;20487;-81
2022/09/09 00:50:40;;;;;;;16.05;8.68;;;;;;;;;;10404876;28;20439;-84
2022/09/09 00:56:10;;;;;;;13.85;8.32;;;;;;;;;;10406522;28;20045;-82
2022/09/09 01:01:11;;;;;;;11.80;7.50;;;;;;;;;;10404940;28;20526;-80
2022/09/09 01:06:15;;;;;;;10.73;7.68;;;;;;;;;;10379154;28;20022;-81
2022/09/09 01:11:26;;;;;;;12.88;9.05;;;;;;;;;;10370891;28;20037;-83
2022/09/09 01:16:29;;;;;;;13.80;9.02;;;;;;;;;;10404137;28;20095;-80
2022/09/09 01:21:52;;;;;;;12.13;7.93;;;;;;;;;;10406776;28;20548;-82
2022/09/09 01:26:56;;;;;;;13.15;7.93;;;;;;;;;;10404817;28;20508;-82
2022/09/09 01:31:58;;;;;;;10.43;7.82;;;;;;;;;;10406493;28;20113;-85
2022/09/09 01:37:09;;;;;;;13.27;7.63;;;;;;;;;;10407351;28;20041;-84
2022/09/09 01:42:14;;;;;;;11.00;7.78;;;;;;;;;;10404409;28;20030;-82
2022/09/09 01:47:18;;;;;;;13.13;7.88;;;;;;;;;;10405379;28;20068;-84
2022/09/09 01:52:18;;;;;;;14.43;8.50;;;;;;;;;;10405762;28;20100;-82
2022/09/09 01:57:24;;;;;;;15.65;8.52;;;;;;;;;;10403418;28;20025;-80
2022/09/09 02:02:27;;;;;;;10.57;8.00;;;;;;;;;;10404854;28;20099;-82
2022/09/09 02:07:41;;;;;;;10.85;8.30;;;;;;;;;;10412151;28;20026;-80
2022/09/09 02:12:46;;;;;;;13.65;8.23;;;;;;;;;;10418781;28;20025;-81
2022/09/09 02:17:48;;;;;;;15.90;9.52;;;;;;;;;;10409932;28;20085;-81
2022/09/09 02:22:50;;;;;;;16.10;9.75;;;;;;;;;;10410157;28;20017;-82
2022/09/09 02:27:51;;;;;;;10.10;8.43;;;;;;;;;;10413929;28;20041;-83
2022/09/09 02:32:56;;;;;;;15.80;9.32;;;;;;;;;;10411726;28;20458;-82
2022/09/09 02:37:59;;;;;;;16.00;8.15;;;;;;;;;;10411485;28;20030;-81
2022/09/09 02:43:01;;;;;;;12.05;8.40;;;;;;;;;;10411782;28;20020;-82
2022/09/09 02:48:02;;;;;;;15.88;8.80;;;;;;;;;;10384018;28;20065;-81
2022/09/09 02:53:15;;;;;;;12.77;9.75;;;;;;;;;;10385082;28;20024;-81
2022/09/09 02:58:17;;;;;;;15.05;8.90;;;;;;;;;;10451673;28;20086;-80
2022/09/09 03:03:19;;;;;;;17.25;9.93;;;;;;;;;;10429882;28;20025;-83
2022/09/09 03:08:20;;;;;;;17.27;11.02;;;;;;;;;;10412939;28;20041;-81
2022/09/09 03:13:20;;;;;;;15.77;10.48;;;;;;;;;;10414015;28;20505;-80
2022/09/09 03:18:23;;;;;;;25.65;12.43;;;;;;;;;;10425576;28;20035;-79
2022/09/09 03:23:23;;;;;;;21.15;12.68;;;;;;;;;;10415029;28;20053;-81
2022/09/09 03:28:24;;;;;;;19.10;12.73;;;;;;;;;;10407844;28;20133;-81
2022/09/09 03:33:36;;;;;;;22.13;13.27;;;;;;;;;;10408338;28;20462;-82
2022/09/09 03:38:36;;;;;;;23.77;13.52;;;;;;;;;;10408382;28;20474;-82
2022/09/09 03:43:43;;;;;;;18.42;12.65;;;;;;;;;;10409725;28;20036;-84
2022/09/09 03:48:43;;;;;;;23.20;13.27;;;;;;;;;;10407281;28;20056;-79
2022/09/09 03:53:44;;;;;;;22.73;13.35;;;;;;;;;;10406674;28;20087;-80
2022/09/09 03:58:45;;;;;;;25.15;14.55;;;;;;;;;;10409210;28;20059;-82
2022/09/09 04:03:45;;;;;;;21.70;11.90;;;;;;;;;;10409436;28;20060;-79
2022/09/09 04:08:48;;;;;;;19.87;13.10;;;;;;;;;;10406735;28;20051;-82
2022/09/09 04:13:49;;;;;;;28.80;13.55;;;;;;;;;;10407821;28;20465;-79
2022/09/09 04:18:49;;;;;;;24.65;13.55;;;;;;;;;;10409451;28;20023;-81
2022/09/09 04:23:51;;;;;;;26.27;13.67;;;;;;;;;;10407859;28;20017;-83
2022/09/09 04:28:53;;;;;;;28.65;19.25;;;;;;;;;;10406534;28;20045;-81
2022/09/09 04:33:56;;;;;;;29.10;12.33;;;;;;;;;;10407504;28;20029;-84
2022/09/09 04:38:56;;;;;;;19.73;12.40;;;;;;;;;;10396120;28;20068;-80
2022/09/09 04:43:59;;;;;;;22.63;13.48;;;;;;;;;;10409301;28;20042;-82
2022/09/09 04:48:59;;;;;;;28.08;11.90;;;;;;;;;;10404461;28;20482;-79
2022/09/09 04:54:00;;;;;;;20.55;11.00;;;;;;;;;;10404655;28;20013;-81
2022/09/09 04:59:02;;;;;;;19.30;10.45;;;;;;;;;;10405707;28;20029;-81
2022/09/09 05:04:02;;;;;;;13.55;8.88;;;;;;;;;;10404032;28;20037;-80
2022/09/09 05:09:03;;;;;;;15.33;8.93;;;;;;;;;;10407305;28;20132;-80
2022/09/09 05:14:06;;;;;;;18.42;8.38;;;;;;;;;;10405777;28;20120;-84
2022/09/09 05:19:08;;;;;;;14.98;8.88;;;;;;;;;;10406463;28;20686;-81
2022/09/09 05:24:12;;;;;;;12.45;7.60;;;;;;;;;;10405711;28;20017;-83
2022/09/09 05:29:19;;;;;;;12.48;7.85;;;;;;;;;;10371290;28;20054;-83
2022/09/09 05:34:20;;;;;;;12.95;7.68;;;;;;;;;;10391735;28;20087;-81
2022/09/09 05:39:20;;;;;;;9.25;6.85;;;;;;;;;;10410277;28;20463;-83
2022/09/09 05:49:58;;;;;;;15.70;6.45;;;;;;;;;;10414713;28;20402;-81
2022/09/09 05:54:59;;;;;;;13.60;7.43;;;;;;;;;;10411865;28;20033;-80
2022/09/09 06:00:00;;;;;;;10.65;6.68;;;;;;;;;;10395146;28;20079;-83
2022/09/09 06:05:00;;;;;;;10.02;6.15;;;;;;;;;;10397103;28;20076;-84
2022/09/09 06:10:02;;;;;;;12.63;5.28;;;;;;;;;;10414179;28;20126;-84
2022/09/09 06:15:07;;;;;;;11.43;4.95;;;;;;;;;;10413147;28;20033;-82
2022/09/09 06:20:09;;;;;;;18.15;5.55;;;;;;;;;;10410632;28;20055;-81
2022/09/09 06:25:09;;;;;;;11.00;6.13;;;;;;;;;;10411100;28;20013;-82
2022/09/09 06:30:21;;;;;;;10.48;7.13;;;;;;;;;;10410022;28;20054;-82
2022/09/09 06:35:23;;;;;;;12.05;6.35;;;;;;;;;;10417573;28;20049;-84
2022/09/09 06:40:26;;;;;;;9.70;6.20;;;;;;;;;;10412534;28;20116;-82
2022/09/09 06:45:27;;;;;;;13.95;6.22;;;;;;;;;;10413401;28;20167;-83
2022/09/09 06:50:27;;;;;;;16.37;7.03;;;;;;;;;;10411185;28;20032;-84
2022/09/09 06:55:27;;;;;;;12.95;6.25;;;;;;;;;;10410953;28;20370;-82
2022/09/09 07:00:28;;;;;;;9.02;5.55;;;;;;;;;;10410093;28;20501;-82
2022/09/09 07:05:29;;;;;;;13.23;5.80;;;;;;;;;;10436979;28;20047;-81
2022/09/09 07:10:29;;;;;;;10.03;5.57;;;;;;;;;;10447526;28;20037;-81
2022/09/09 07:15:32;;;;;;;18.53;6.80;;;;;;;;;;10407973;28;20101;-83
2022/09/09 07:20:32;;;;;;;10.43;5.80;;;;;;;;;;10407582;28;20053;-81
2022/09/09 07:25:34;;;;;;;17.23;5.68;;;;;;;;;;10409227;28;20037;-83
2022/09/09 07:30:35;;;;;;;10.48;4.32;;;;;;;;;;10409375;28;20069;-83
2022/09/09 07:35:38;;;;;;;12.77;4.20;;;;;;;;;;10408632;28;20714;-88
2022/09/09 07:46:23;;;;;;;17.38;4.78;;;;;;;;;;10421755;22;20143;-85
2022/09/09 07:51:32;;;;;;;13.18;4.60;;;;;;;;;;10373559;28;20026;-86
2022/09/09 07:56:59;;;;;;;15.00;4.00;;;;;;;;;;10388387;28;20061;-76
2022/09/09 08:02:25;;;;;;;6.93;3.88;;;;;;;;;;10364711;28;20038;-76
2022/09/09 08:07:26;;;;;;;34.13;31.40;;;;;;;;;;10362139;28;20030;-79
2022/09/09 08:12:28;;;;;;;51.70;48.35;;;;;;;;;;10363377;28;20535;-85
2022/09/09 08:17:43;;;;;;;156.30;146.20;;;;;;;;;;10378055;28;20037;-78
2022/09/09 08:23:12;;;;;;;164.18;153.90;;;;;;;;;;10374215;28;20030;-76
2022/09/09 08:28:22;;;;;;;211.18;196.85;;;;;;;;;;10372988;28;20030;-83
2022/09/09 08:33:22;;;;;;;228.63;212.88;;;;;;;;;;10365559;28;20452;-76
2022/09/09 08:38:23;;;;;;;217.57;202.70;;;;;;;;;;10380056;28;20040;-80
2022/09/09 08:43:24;;;;;;;321.95;298.48;;;;;;;;;;10351434;28;20018;-83
2022/09/09 08:48:27;;;;;;;321.02;297.48;;;;;;;;;;10351859;28;20117;-83
2022/09/09 08:53:30;;;;;;;730.33;671.33;;;;;;;;;;10351713;28;20045;-84
2022/09/09 08:58:32;;;;;;;790.67;726.70;;;;;;;;;;10355475;28;20072;-83
2022/09/09 09:03:45;;;;;;;562.92;521.28;;;;;;;;;;10336050;28;20069;-84
2022/09/09 09:09:04;;;;;;;8.20;4.53;;;;;;;;;;10400332;28;20555;-78
2022/09/09 09:14:11;;;;;;;92.78;87.28;;;;;;;;;;10396924;28;20450;-84
2022/09/09 09:19:14;;;;;;;23.13;14.05;;;;;;;;;;10377510;28;20029;-82
2022/09/09 09:24:32;;;;;;;17.13;3.90;;;;;;;;;;10364898;28;20613;-78
2022/09/09 09:29:34;;;;;;;6.53;4.25;;;;;;;;;;10344994;28;20030;-83
2022/09/09 09:34:35;;;;;;;7.63;4.47;;;;;;;;;;10363721;28;20026;-81
2022/09/09 09:39:37;;;;;;;6.45;3.47;;;;;;;;;;10363606;28;20033;-83
2022/09/09 09:44:38;;;;;;;7.72;4.15;;;;;;;;;;10377776;28;20030;-83
2022/09/09 09:49:39;;;;;;;11.65;4.55;;;;;;;;;;10359819;28;20511;-82
2022/09/09 09:54:41;;;;;;;8.10;3.92;;;;;;;;;;10366754;28;20037;-82
2022/09/09 09:59:42;;;;;;;9.25;3.95;;;;;;;;;;10363300;28;20025;-85
2022/09/09 10:05:02;;;;;;;7.45;3.78;;;;;;;;;;10353062;28;20479;-82
2022/09/09 10:10:03;;;;;;;16.30;5.18;;;;;;;;;;10366602;28;20117;-82
2022/09/09 10:15:17;;;;;;;12.10;4.30;;;;;;;;;;10392936;28;20395;-83
2022/09/09 10:20:36;;;;;;;8.43;3.58;;;;;;;;;;10396274;28;20476;-85
2022/09/09 10:25:45;;;;;;;13.90;4.43;;;;;;;;;;10373697;28;20038;-81
2022/09/09 10:31:05;;;;;;;12.32;4.53;;;;;;;;;;10354491;28;20018;-82
2022/09/09 10:36:13;;;;;;;14.52;4.78;;;;;;;;;;10373105;28;20112;-82
2022/09/09 10:41:43;;;;;;;6.72;4.25;;;;;;;;;;10370957;28;20476;-82
2022/09/09 10:46:49;;;;;;;8.00;4.22;;;;;;;;;;10331891;28;20057;-81
2022/09/09 10:51:53;;;;;;;8.25;4.50;;;;;;;;;;10364894;28;20136;-88
2022/09/09 10:57:30;;;;;;;9.90;4.47;;;;;;;;;;10379559;28;20030;-86
2022/09/09 11:02:42;;;;;;;8.95;4.93;;;;;;;;;;10361532;28;20052;-85
2022/09/09 11:07:52;;;;;;;12.90;4.70;;;;;;;;;;10352069;28;20026;-82
2022/09/09 11:12:54;;;;;;;11.18;4.78;;;;;;;;;;10369055;28;20448;-83
2022/09/09 11:17:57;;;;;;;9.77;4.60;;;;;;;;;;10366631;28;20506;-83
2022/09/09 11:23:17;;;;;;;12.30;4.75;;;;;;;;;;10375161;28;20053;-78
2022/09/09 11:28:30;;;;;;;10.32;5.25;;;;;;;;;;10340394;28;20318;-81
2022/09/09 11:33:37;;;;;;;17.90;5.10;;;;;;;;;;10333338;28;20073;-80
2022/09/09 11:38:45;;;;;;;11.03;5.07;;;;;;;;;;10356387;28;20459;-82
2022/09/09 11:43:54;;;;;;;7.20;4.75;;;;;;;;;;10352015;28;20064;-86
2022/09/09 11:49:00;;;;;;;7.43;4.72;;;;;;;;;;10388768;28;20576;-84
2022/09/09 11:54:23;;;;;;;12.52;5.05;;;;;;;;;;10318460;28;20097;-82
2022/09/09 11:59:25;;;;;;;12.23;5.72;;;;;;;;;;10320627;28;20479;-82
2022/09/09 12:04:29;;;;;;;10.13;6.13;;;;;;;;;;10349682;28;20395;-83
2022/09/09 12:09:33;;;;;;;9.18;6.50;;;;;;;;;;10351528;28;20538;-84
2022/09/09 12:14:36;;;;;;;10.80;5.78;;;;;;;;;;10335069;28;20022;-81
2022/09/09 12:19:36;;;;;;;13.80;5.65;;;;;;;;;;10349156;28;20034;-82
2022/09/09 12:24:56;;;;;;;11.63;5.73;;;;;;;;;;10355312;28;20492;-84
2022/09/09 12:30:09;;;;;;;11.88;6.15;;;;;;;;;;10374110;28;20030;-76
2022/09/09 12:35:14;;;;;;;15.20;5.78;;;;;;;;;;10352672;28;20034;-82
2022/09/09 12:40:26;;;;;;;11.80;5.30;;;;;;;;;;10370898;28;20120;-84
2022/09/09 12:45:32;;;;;;;8.88;5.28;;;;;;;;;;10352339;28;20045;-83
2022/09/09 12:50:34;;;;;;;14.65;6.50;;;;;;;;;;10344103;28;20042;-82
2022/09/09 12:55:37;;;;;;;15.00;5.70;;;;;;;;;;10352412;28;20029;-88
2022/09/09 13:00:48;;;;;;;14.02;6.18;;;;;;;;;;10364520;28;20018;-80
2022/09/09 13:05:49;;;;;;;12.30;5.63;;;;;;;;;;10365510;28;20116;-82
2022/09/09 13:11:09;;;;;;;13.93;5.88;;;;;;;;;;10355033;28;20117;-78
2022/09/09 13:16:21;;;;;;;9.55;5.00;;;;;;;;;;10368874;28;20025;-81
2022/09/09 13:21:37;;;;;;;12.10;5.72;;;;;;;;;;10330463;28;20112;-79
2022/09/09 13:26:38;;;;;;;12.50;5.22;;;;;;;;;;10346593;28;20475;-80
2022/09/09 13:31:52;;;;;;;13.73;5.15;;;;;;;;;;10349369;28;20050;-83
2022/09/09 13:36:53;;;;;;;19.67;5.57;;;;;;;;;;10349948;28;20026;-82
2022/09/09 13:42:08;;;;;;;14.80;6.80;;;;;;;;;;10354421;28;20021;-78
2022/09/09 13:47:08;;;;;;;17.33;6.55;;;;;;;;;;10348150;28;20030;-81
2022/09/09 13:52:16;;;;;;;21.27;6.47;;;;;;;;;;10348697;28;20060;-83
2022/09/09 13:57:17;;;;;;;23.55;7.03;;;;;;;;;;10349120;28;20030;-81
2022/09/09 14:02:18;;;;;;;18.23;6.22;;;;;;;;;;10357485;28;20462;-82
2022/09/09 14:07:18;;;;;;;14.48;6.47;;;;;;;;;;10353668;28;20028;-84
2022/09/09 14:12:19;;;;;;;9.88;6.25;;;;;;;;;;10355090;28;20551;-83
2022/09/09 14:17:22;;;;;;;16.95;6.38;;;;;;;;;;10357641;28;20040;-80
2022/09/09 14:22:22;;;;;;;14.32;6.88;;;;;;;;;;10354389;28;20022;-81
2022/09/09 14:27:22;;;;;;;15.35;6.47;;;;;;;;;;10352876;28;20018;-83
2022/09/09 14:32:23;;;;;;;12.60;5.93;;;;;;;;;;10354894;28;20499;-82
2022/09/09 14:37:23;;;;;;;17.15;5.68;;;;;;;;;;10356599;28;20513;-82
2022/09/09 14:42:24;;;;;;;10.52;5.90;;;;;;;;;;10370221;28;20021;-81
2022/09/09 14:47:25;;;;;;;23.27;7.33;;;;;;;;;;10358503;28;20030;-82
2022/09/09 14:52:26;;;;;;;13.75;6.72;;;;;;;;;;10381987;28;20045;-82
2022/09/09 14:57:26;;;;;;;13.38;6.55;;;;;;;;;;10352038;28;20072;-82
2022/09/09 15:02:27;;;;;;;18.80;6.85;;;;;;;;;;10351847;28;20018;-86
2022/09/09 15:07:28;;;;;;;13.82;7.38;;;;;;;;;;10351850;28;20021;-82
2022/09/09 15:12:28;;;;;;;18.45;7.65;;;;;;;;;;10369549;28;20494;-83
2022/09/09 15:17:28;;;;;;;16.92;6.38;;;;;;;;;;10350395;28;20032;-82
2022/09/09 15:22:29;;;;;;;19.45;6.47;;;;;;;;;;10349876;28;20022;-80
2022/09/09 15:27:38;;;;;;;13.20;7.53;;;;;;;;;;10355063;28;20029;-82
2022/09/09 15:32:39;;;;;;;15.75;6.75;;;;;;;;;;10370996;28;20483;-81
2022/09/09 15:37:39;;;;;;;11.63;6.80;;;;;;;;;;10352244;28;20022;-87
2022/09/09 15:42:41;;;;;;;15.55;7.10;;;;;;;;;;10352144;28;20034;-85
2022/09/09 15:47:41;;;;;;;19.38;8.00;;;;;;;;;;10359440;28;20032;-79
2022/09/09 15:52:41;;;;;;;17.40;7.35;;;;;;;;;;10380838;28;20042;-81
2022/09/09 15:57:41;;;;;;;14.38;6.93;;;;;;;;;;10350047;28;20025;-79
2022/09/09 16:02:43;;;;;;;13.35;6.68;;;;;;;;;;10350814;28;20425;-82
2022/09/09 16:07:44;;;;;;;17.85;8.75;;;;;;;;;;10366286;28;20112;-80
2022/09/09 16:12:48;;;;;;;18.88;7.40;;;;;;;;;;10348821;28;20480;-82
2022/09/09 16:17:56;;;;;;;13.50;6.90;;;;;;;;;;10366545;28;20029;-82
2022/09/09 16:22:57;;;;;;;20.65;9.13;;;;;;;;;;10352147;28;20511;-80
2022/09/09 16:27:57;;;;;;;23.70;8.43;;;;;;;;;;10365626;28;20033;-82
2022/09/09 16:32:57;;;;;;;20.10;8.32;;;;;;;;;;10351781;28;20061;-81
2022/09/09 16:37:57;;;;;;;16.08;8.18;;;;;;;;;;10348190;28;20097;-82
2022/09/09 16:42:58;;;;;;;25.10;10.30;;;;;;;;;;10348877;28;20041;-80
2022/09/09 16:47:58;;;;;;;23.80;9.00;;;;;;;;;;10359355;28;20021;-83
2022/09/09 16:52:59;;;;;;;31.20;10.65;;;;;;;;;;10385020;28;20026;-81
2022/09/09 16:57:59;;;;;;;22.35;10.80;;;;;;;;;;10349625;28;20021;-81
2022/09/09 17:02:59;;;;;;;27.33;9.93;;;;;;;;;;10348148;28;20029;-81
2022/09/09 17:08:00;;;;;;;20.80;9.73;;;;;;;;;;10347754;28;20033;-81
2022/09/09 17:13:01;;;;;;;32.60;11.05;;;;;;;;;;10366067;28;20018;-80
2022/09/09 17:18:01;;;;;;;17.90;10.23;;;;;;;;;;10326349;28;20524;-81
2022/09/09 17:23:02;;;;;;;26.58;10.65;;;;;;;;;;10324419;28;20035;-82
2022/09/09 17:28:04;;;;;;;21.73;9.33;;;;;;;;;;10350866;28;20044;-83
2022/09/09 17:33:06;;;;;;;25.27;17.08;;;;;;;;;;10370661;28;20022;-84
2022/09/09 17:38:08;;;;;;;22.17;17.05;;;;;;;;;;10341686;28;20029;-83
2022/09/09 17:43:08;;;;;;;30.67;19.38;;;;;;;;;;10342534;28;20026;-82
2022/09/09 17:48:09;;;;;;;28.67;25.73;;;;;;;;;;10373500;28;20168;-80
2022/09/09 17:53:10;;;;;;;128.40;120.53;;;;;;;;;;10354277;28;20029;-81
2022/09/09 17:58:10;;;;;;;246.82;230.45;;;;;;;;;;10355726;28;20291;-79
2022/09/09 18:03:11;;;;;;;218.90;203.75;;;;;;;;;;10353636;28;20081;-89
2022/09/09 18:08:12;;;;;;;350.80;325.92;;;;;;;;;;10356454;28;20025;-82
2022/09/09 18:13:12;;;;;;;212.18;197.23;;;;;;;;;;10400659;28;20452;-82
2022/09/09 18:18:12;;;;;;;29.33;26.38;;;;;;;;;;10363074;28;20022;-81
2022/09/09 18:23:13;;;;;;;239.17;223.70;;;;;;;;;;10373009;28;20012;-82
2022/09/09 18:28:19;;;;;;;179.52;168.02;;;;;;;;;;10353347;28;20323;-89
2022/09/09 18:33:20;;;;;;;12.10;9.00;;;;;;;;;;10355050;28;20096;-83
2022/09/09 18:38:21;;;;;;;199.85;186.20;;;;;;;;;;10356946;28;20412;-85
2022/09/09 18:43:26;;;;;;;256.30;238.82;;;;;;;;;;10357797;28;20042;-81
2022/09/09 18:48:28;;;;;;;505.50;469.92;;;;;;;;;;10356804;28;20057;-83
2022/09/09 18:53:30;;;;;;;324.10;301.73;;;;;;;;;;10374819;28;20512;-83
2022/09/09 18:58:54;;;;;;;384.60;358.17;;;;;;;;;;10356839;28;20081;-84
2022/09/09 19:03:57;;;;;;;461.73;428.60;;;;;;;;;;10372058;28;20022;-84
2022/09/09 19:08:58;;;;;;;398.25;367.48;;;;;;;;;;10335740;28;20022;-83
2022/09/09 19:14:09;;;;;;;421.17;389.75;;;;;;;;;;10381595;28;20018;-84
2022/09/09 19:19:20;;;;;;;348.10;323.63;;;;;;;;;;10379097;28;20105;-85
2022/09/09 19:24:23;;;;;;;369.05;343.70;;;;;;;;;;10358785;28;20022;-80
2022/09/09 19:29:26;;;;;;;472.40;439.73;;;;;;;;;;10374993;28;20064;-80
2022/09/09 19:34:27;;;;;;;342.58;319.02;;;;;;;;;;10352344;28;20030;-82
2022/09/09 19:39:27;;;;;;;322.25;300.23;;;;;;;;;;10333733;28;20492;-82
2022/09/09 19:44:27;;;;;;;271.87;253.47;;;;;;;;;;10349611;28;20030;-81
2022/09/09 19:49:35;;;;;;;218.03;203.50;;;;;;;;;;10349909;28;20049;-84
2022/09/09 19:54:38;;;;;;;267.02;248.63;;;;;;;;;;10329852;28;20285;-86
2022/09/09 19:59:38;;;;;;;574.25;532.50;;;;;;;;;;10342590;28;20502;-79
2022/09/09 20:04:39;;;;;;;774.53;714.40;;;;;;;;;;10331320;28;20045;-82
2022/09/09 20:09:39;;;;;;;594.28;551.13;;;;;;;;;;10327082;28;20034;-80
2022/09/09 20:14:41;;;;;;;607.97;563.30;;;;;;;;;;10327531;28;20096;-84
2022/09/09 20:24:53;;;;;;;981.03;905.83;;;;;;;;;;10602248;23;20084;-84
2022/09/09 20:29:56;;;;;;;991.40;915.25;;;;;;;;;;10457660;28;20494;-84
2022/09/09 20:34:57;;;;;;;638.03;590.65;;;;;;;;;;10470743;28;20070;-82
2022/09/09 20:39:58;;;;;;;576.90;533.77;;;;;;;;;;10489557;28;20064;-85
2022/09/09 20:45:02;;;;;;;633.35;585.55;;;;;;;;;;10474201;28;20024;-85
2022/09/09 20:50:03;;;;;;;523.67;487.38;;;;;;;;;;10454843;28;20060;-82
2022/09/09 20:55:03;;;;;;;474.87;442.60;;;;;;;;;;10470625;28;20103;-82
2022/09/09 21:00:05;;;;;;;488.20;454.70;;;;;;;;;;10470172;28;20984;-81
2022/09/09 21:05:06;;;;;;;437.20;407.65;;;;;;;;;;10471696;28;20342;-80
2022/09/09 21:10:06;;;;;;;520.17;483.42;;;;;;;;;;10470596;28;20017;-81
2022/09/09 21:15:12;;;;;;;533.40;496.15;;;;;;;;;;10502618;28;20033;-84
2022/09/09 21:20:13;;;;;;;537.55;500.55;;;;;;;;;;10484632;28;20044;-82
2022/09/09 21:25:14;;;;;;;524.90;488.95;;;;;;;;;;10471222;28;20028;-82
2022/09/09 21:30:23;;;;;;;673.63;623.30;;;;;;;;;;10470138;28;20020;-89
2022/09/09 21:35:24;;;;;;;720.72;666.38;;;;;;;;;;10471150;28;20013;-82
2022/09/09 21:40:25;;;;;;;596.30;553.72;;;;;;;;;;10470175;28;20032;-82
2022/09/09 21:45:26;;;;;;;55.22;51.03;;;;;;;;;;10491309;28;20032;-81
2022/09/09 21:50:27;;;;;;;37.28;33.42;;;;;;;;;;10473148;28;20021;-81
2022/09/09 21:55:27;;;;;;;44.45;40.28;;;;;;;;;;10469127;28;20414;-82
2022/09/09 22:00:27;;;;;;;60.65;55.85;;;;;;;;;;10472420;28;20304;-85
2022/09/09 22:05:28;;;;;;;111.10;103.72;;;;;;;;;;10468999;28;20050;-82
2022/09/09 22:10:28;;;;;;;80.35;74.65;;;;;;;;;;10470428;28;20029;-82
2022/09/09 22:15:29;;;;;;;87.47;81.15;;;;;;;;;;10471404;28;20029;-80
2022/09/09 22:20:35;;;;;;;41.80;37.80;;;;;;;;;;10474707;28;20472;-85
2022/09/09 22:25:36;;;;;;;137.48;129.15;;;;;;;;;;10463537;28;20067;-82
2022/09/09 22:30:37;;;;;;;110.60;102.50;;;;;;;;;;10476414;28;20512;-81
2022/09/09 22:35:45;;;;;;;84.80;78.72;;;;;;;;;;10496907;28;20437;-79
2022/09/09 22:40:46;;;;;;;124.10;115.57;;;;;;;;;;10496457;28;20031;-83
2022/09/09 22:45:49;;;;;;;58.83;53.95;;;;;;;;;;10461928;28;20025;-87
2022/09/09 22:50:52;;;;;;;49.58;45.67;;;;;;;;;;10476387;28;20020;-81
2022/09/09 22:55:57;;;;;;;58.95;54.22;;;;;;;;;;10477509;28;20039;-83
2022/09/09 23:00:58;;;;;;;68.78;63.97;;;;;;;;;;10495654;28;20499;-83
2022/09/09 23:05:59;;;;;;;64.50;59.95;;;;;;;;;;10460865;28;20091;-84
2022/09/09 23:11:00;;;;;;;39.47;35.78;;;;;;;;;;10458229;28;20035;-82
2022/09/09 23:16:07;;;;;;;71.55;66.10;;;;;;;;;;10477906;28;20032;-85
2022/09/09 23:21:08;;;;;;;39.05;35.67;;;;;;;;;;10474577;28;20554;-80
2022/09/09 23:26:10;;;;;;;41.63;37.75;;;;;;;;;;10492491;28;20036;-84
2022/09/09 23:31:12;;;;;;;50.00;46.03;;;;;;;;;;10475461;28;20115;-89
2022/09/09 23:36:20;;;;;;;24.90;22.48;;;;;;;;;;10478577;28;20495;-86
2022/09/09 23:41:22;;;;;;;35.13;31.70;;;;;;;;;;10456802;28;20028;-81
2022/09/09 23:46:26;;;;;;;68.35;62.88;;;;;;;;;;10473723;28;20509;-82
2022/09/09 23:51:29;;;;;;;82.57;77.05;;;;;;;;;;10472226;28;20054;-81
2022/09/09 23:56:31;;;;;;;124.60;116.65;;;;;;;;;;10472582;28;20025;-81
